Bowling Green, KY (42101)

10:24 AM CST on February 12, 2016 (GMT -0600)
Ridgeview Drive | | Change Station
CLOSE
Current Station
Personal Weather Station
Location: Bowling Green, KY
Elevation: 650 ft
Nearby Weather Stations

Elev 650 ft 36.99 °N, 86.52 °W | Updated 2 seconds ago

Overcast
Overcast
28.2 °F
Feels Like 28 °F
N
1.0
Wind Variable Wind from North
Gusts 2.0 mph

Today
High -- | Low -- °F
--% Chance of Precip.
Yesterday
High -- | Low -- °F
Precip. -- in
Pressure 30.24 in
Visibility 9.0 miles
Clouds Mostly Cloudy 700 ft
Overcast 3200 ft
Windchill 28 °F
Dew Point 26 °F
Humidity 92%
Rainfall 0.00 in
Snow Depth Not available.
6:38 AM 5:22 PM
Waxing Crescent, 21% visible
METAR KBWG 121553Z AUTO 34004KT 9SM BKN007 OVC032 M02/M03 A3023 RMK AO2 SLP240 T10171033
Pressure 30.24 in
Visibility 9.0 miles
Clouds Mostly Cloudy 700 ft
Overcast 3200 ft
Windchill 28 °F
Dew Point 26 °F
Humidity 92%
Rainfall 0.00 in
Snow Depth Not available.
6:38 AM 5:22 PM
Waxing Crescent, 21% visible
METAR KBWG 121553Z AUTO 34004KT 9SM BKN007 OVC032 M02/M03 A3023 RMK AO2 SLP240 T10171033

10-Day Weather Forecast

Almanac

Astronomy

Feb. 12, 2016 Rise Set
Actual Time
Civil Twilight
Nautical Twilight
Astronomical Twilight
Moon
Length of Visible Light
Length of Day
Tomorrow will be .
, % of the Moon is Illuminated

Today's Extremes

State Highs State Lows

Community

WunderPhotos

Upload Photos

1,892,350 photos uploaded!

WunderBlog® & News

Nearby

Air Quality

  Air Quality AQ Index Pollutant
Not available.

Snow Depth

Station Depth Elevation

Earthquake Activity

City Distance Mag. Time & Date
Minimum magnitude displayed is 2.5.

Coastal Water Temperatures

Place Temperature

Stations

Nearby Weather Stations

Station Location Temp. Windchill Dew Point Humidity Wind Precip. Elev Updated Type
                   

Watches & Warnings

There are currently no watches in effect.